createdAt,value
2019-01-31T00:00:42.772Z,-0.73
2019-01-31T00:04:05.219Z,-0.69
2019-01-31T00:07:07.146Z,-0.70
2019-01-31T00:10:01.452Z,-0.61
2019-01-31T00:13:29.545Z,-0.58
2019-01-31T00:16:46.489Z,-0.58
2019-01-31T00:19:33.479Z,-0.65
2019-01-31T00:22:58.919Z,-0.49
2019-01-31T00:26:07.014Z,-0.58
2019-01-31T00:29:13.288Z,-0.51
2019-01-31T00:32:26.759Z,-0.49
2019-01-31T00:35:27.093Z,-0.42
2019-01-31T00:38:37.866Z,-0.49
2019-01-31T00:41:36.601Z,-0.51
2019-01-31T00:44:49.006Z,-0.50
2019-01-31T00:47:43.632Z,-0.44
2019-01-31T00:50:44.217Z,-0.41
2019-01-31T00:53:55.092Z,-0.38
2019-01-31T00:56:39.936Z,-0.44
2019-01-31T00:59:59.613Z,-0.31
2019-01-31T01:02:59.369Z,-0.25
2019-01-31T01:06:32.390Z,-0.15
2019-01-31T01:09:38.302Z,-0.33
2019-01-31T01:12:49.143Z,-0.25
2019-01-31T01:15:41.473Z,-0.29
2019-01-31T01:19:02.323Z,-0.31
2019-01-31T01:22:09.860Z,-0.27
2019-01-31T01:25:15.278Z,-0.32
2019-01-31T01:27:59.826Z,-0.24
2019-01-31T01:31:13.209Z,-0.31
2019-01-31T01:34:22.845Z,-0.41
2019-01-31T01:37:16.142Z,-0.41
2019-01-31T01:40:17.428Z,-0.52
2019-01-31T01:43:22.711Z,-0.56
2019-01-31T01:46:34.026Z,-0.56
2019-01-31T01:49:43.517Z,-0.58
2019-01-31T01:52:37.232Z,-0.65
2019-01-31T01:55:40.991Z,-0.70
2019-01-31T01:58:44.257Z,-0.75
2019-01-31T02:02:02.873Z,-0.76
2019-01-31T02:05:02.658Z,-0.75
2019-01-31T02:08:12.249Z,-0.82
2019-01-31T02:11:32.214Z,-0.79
2019-01-31T02:14:30.370Z,-0.77
2019-01-31T02:17:17.716Z,-0.86
2019-01-31T02:20:48.887Z,-0.85
2019-01-31T02:23:34.796Z,-0.79
2019-01-31T02:26:56.603Z,-0.84
2019-01-31T02:29:57.934Z,-0.73
2019-01-31T02:33:29.427Z,-0.75
2019-01-31T02:36:51.023Z,-0.70
2019-01-31T02:39:49.695Z,-0.63
2019-01-31T02:43:01.673Z,-0.63
2019-01-31T02:46:28.968Z,-0.61
2019-01-31T02:49:26.156Z,-0.72
2019-01-31T02:52:05.757Z,-0.67
2019-01-31T02:55:22.036Z,-0.63
2019-01-31T02:58:12.046Z,-0.61
2019-01-31T03:01:12.592Z,-0.59
2019-01-31T03:04:07.779Z,-0.55
2019-01-31T03:07:27.488Z,-0.66
2019-01-31T03:10:28.774Z,-0.70
2019-01-31T03:13:32.636Z,-1.01
2019-01-31T03:17:00.992Z,-1.07
2019-01-31T03:20:11.312Z,-1.01
2019-01-31T03:23:27.080Z,-1.00
2019-01-31T03:26:06.067Z,-1.06
2019-01-31T03:29:30.767Z,-1.12
2019-01-31T03:32:28.983Z,-1.13
2019-01-31T03:35:31.420Z,-1.05
2019-01-31T03:38:31.319Z,-1.15
2019-01-31T03:41:41.566Z,-1.21
2019-01-31T03:44:47.703Z,-1.17
2019-01-31T03:47:45.477Z,-1.19
2019-01-31T03:50:25.173Z,-1.21
2019-01-31T03:53:43.339Z,-1.22
2019-01-31T03:56:48.838Z,-1.24
2019-01-31T03:59:51.549Z,-1.23
2019-01-31T04:03:07.797Z,-1.18
2019-01-31T04:06:01.511Z,-1.15
2019-01-31T04:08:33.744Z,-1.24
2019-01-31T04:11:05.736Z,-1.25
2019-01-31T04:13:37.838Z,-1.31
2019-01-31T04:16:09.843Z,-1.35
2019-01-31T04:18:41.909Z,-1.37
2019-01-31T04:21:14.049Z,-1.35
2019-01-31T04:23:49.074Z,-1.41
2019-01-31T04:26:21.169Z,-1.47
2019-01-31T04:28:53.244Z,-1.48
2019-01-31T04:31:26.099Z,-1.53
2019-01-31T04:33:58.219Z,-1.53
2019-01-31T04:36:30.252Z,-1.57
2019-01-31T04:39:04.516Z,-1.56
2019-01-31T04:41:38.490Z,-1.60
2019-01-31T04:44:10.556Z,-1.57
2019-01-31T04:46:42.727Z,-1.56
2019-01-31T04:49:15.953Z,-1.60
2019-01-31T04:51:48.011Z,-1.60
2019-01-31T04:54:20.341Z,-1.55
2019-01-31T04:56:52.486Z,-1.51
2019-01-31T04:59:24.510Z,-1.45
2019-01-31T05:01:56.648Z,-1.46
2019-01-31T05:04:28.754Z,-1.47
2019-01-31T05:07:05.231Z,-1.50
2019-01-31T05:09:37.338Z,-1.49
2019-01-31T05:12:09.651Z,-1.46
2019-01-31T05:14:44.498Z,-1.65
2019-01-31T05:17:23.178Z,-1.66
2019-01-31T05:19:56.750Z,-1.71
2019-01-31T05:22:28.955Z,-1.72
2019-01-31T05:25:01.826Z,-1.73
2019-01-31T05:27:34.082Z,-1.77
2019-01-31T05:30:09.407Z,-1.81
2019-01-31T05:32:41.644Z,-1.84
2019-01-31T05:35:13.722Z,-1.75
2019-01-31T05:37:45.797Z,-1.75
2019-01-31T05:40:20.798Z,-1.81
2019-01-31T05:42:53.457Z,-1.89
2019-01-31T05:45:25.918Z,-1.91
2019-01-31T05:47:58.616Z,-1.88
2019-01-31T05:50:32.359Z,-1.91
2019-01-31T05:53:07.207Z,-1.92
2019-01-31T05:55:39.258Z,-1.91
2019-01-31T05:58:11.711Z,-1.94
2019-01-31T06:00:43.858Z,-1.98
2019-01-31T06:03:16.073Z,-1.98
2019-01-31T06:05:50.068Z,-2.04
2019-01-31T06:08:22.162Z,-2.13
2019-01-31T06:11:06.845Z,-2.22
2019-01-31T06:13:29.962Z,-2.24
2019-01-31T06:16:02.237Z,-2.29
2019-01-31T06:18:34.350Z,-2.32
2019-01-31T06:21:06.566Z,-2.34
2019-01-31T06:23:38.671Z,-2.33
2019-01-31T06:26:10.729Z,-2.28
2019-01-31T06:28:45.407Z,-2.27
2019-01-31T06:31:17.519Z,-2.26
2019-01-31T06:33:49.792Z,-2.34
2019-01-31T06:36:21.994Z,-2.36
2019-01-31T06:38:54.202Z,-2.37
2019-01-31T06:41:26.396Z,-2.35
2019-01-31T06:43:58.413Z,-2.38
2019-01-31T06:46:30.503Z,-2.31
2019-01-31T06:49:02.577Z,-2.24
2019-01-31T06:51:34.702Z,-2.26
2019-01-31T06:54:07.767Z,-2.28
2019-01-31T06:56:39.975Z,-2.30
2019-01-31T06:59:14.636Z,-2.35
2019-01-31T07:01:47.048Z,-2.36
2019-01-31T07:04:19.343Z,-2.31
2019-01-31T07:06:51.557Z,-2.26
2019-01-31T07:09:23.669Z,-2.24
2019-01-31T07:11:56.163Z,-2.26
2019-01-31T07:14:28.302Z,-2.29
2019-01-31T07:17:00.418Z,-2.29
2019-01-31T07:19:32.678Z,-2.33
2019-01-31T07:22:05.194Z,-2.27
2019-01-31T07:24:37.494Z,-2.20
2019-01-31T07:27:12.886Z,-2.19
2019-01-31T07:29:45.172Z,-2.13
2019-01-31T07:32:17.462Z,-2.10
2019-01-31T07:34:49.667Z,-2.05
2019-01-31T07:37:21.799Z,-2.05
2019-01-31T07:39:53.838Z,-2.10
2019-01-31T07:42:25.939Z,-2.06
2019-01-31T07:44:58.040Z,-1.99
2019-01-31T07:47:30.220Z,-1.89
2019-01-31T07:50:02.263Z,-1.91
2019-01-31T07:52:34.440Z,-1.90
2019-01-31T07:55:07.295Z,-1.88
2019-01-31T07:57:39.456Z,-2.08
2019-01-31T08:00:13.482Z,-1.94
2019-01-31T08:02:45.531Z,-1.92
2019-01-31T08:05:19.225Z,-1.87
2019-01-31T08:07:53.425Z,-1.83
2019-01-31T08:10:28.232Z,-1.72
2019-01-31T08:13:00.254Z,-1.70
2019-01-31T08:15:35.400Z,-1.54
2019-01-31T08:18:07.539Z,-1.41
2019-01-31T08:20:39.668Z,-1.51
2019-01-31T08:23:11.748Z,-1.44
2019-01-31T08:25:43.828Z,-1.29
2019-01-31T08:28:15.925Z,-1.14
2019-01-31T08:30:48.994Z,-0.85
2019-01-31T08:33:21.083Z,-0.94
2019-01-31T08:35:53.231Z,-0.62
2019-01-31T08:38:25.408Z,-0.49
2019-01-31T08:40:57.481Z,-0.35
2019-01-31T08:43:30.701Z,-0.12
2019-01-31T08:46:02.814Z,-0.39
2019-01-31T08:48:34.887Z,0.17
2019-01-31T08:51:06.949Z,0.21
2019-01-31T08:53:39.026Z,0.03
2019-01-31T08:56:11.166Z,0.47
2019-01-31T08:58:43.341Z,0.63
2019-01-31T09:01:15.432Z,1.01
2019-01-31T09:03:47.412Z,1.34
2019-01-31T09:06:19.550Z,1.55
2019-01-31T09:08:51.696Z,1.52
2019-01-31T09:11:23.811Z,1.53
2019-01-31T09:13:55.914Z,1.86
2019-01-31T09:16:28.045Z,1.78
2019-01-31T09:19:00.177Z,1.56
2019-01-31T09:22:28.600Z,1.59
2019-01-31T09:25:37.406Z,1.74
2019-01-31T09:28:44.228Z,2.02
2019-01-31T09:32:09.317Z,2.34
2019-01-31T09:34:56.429Z,2.54
2019-01-31T09:38:05.269Z,2.89
2019-01-31T09:41:14.929Z,2.86
2019-01-31T09:44:15.844Z,2.99
2019-01-31T09:47:36.318Z,2.05
2019-01-31T09:50:52.370Z,3.49
2019-01-31T09:54:11.385Z,4.21
2019-01-31T09:57:11.345Z,4.83
2019-01-31T10:00:27.719Z,3.87
2019-01-31T10:03:41.977Z,3.75
2019-01-31T10:07:07.192Z,4.01
2019-01-31T10:09:58.046Z,5.17
2019-01-31T10:12:51.671Z,5.12
2019-01-31T10:15:37.856Z,5.41
2019-01-31T10:18:30.985Z,6.56
2019-01-31T10:21:24.825Z,6.86
2019-01-31T10:24:35.750Z,5.70
2019-01-31T10:27:34.802Z,4.97
2019-01-31T10:30:46.437Z,5.52
2019-01-31T10:34:08.875Z,6.33
2019-01-31T10:36:50.682Z,6.35
2019-01-31T10:39:57.313Z,4.83
2019-01-31T10:43:31.700Z,5.61
2019-01-31T10:46:33.233Z,5.65
2019-01-31T10:49:58.372Z,6.41
2019-01-31T10:53:12.414Z,7.42
2019-01-31T10:56:34.198Z,6.82
2019-01-31T10:59:43.273Z,6.70
2019-01-31T11:03:02.415Z,7.16
2019-01-31T11:06:00.438Z,5.97
2019-01-31T11:08:47.653Z,5.43
2019-01-31T11:12:00.030Z,4.91
2019-01-31T11:15:08.951Z,4.84
2019-01-31T11:18:19.297Z,5.33
2019-01-31T11:21:23.988Z,5.21
2019-01-31T11:24:18.454Z,5.78
2019-01-31T11:27:11.687Z,5.94
2019-01-31T11:30:39.070Z,6.11
2019-01-31T11:33:31.913Z,6.40
2019-01-31T11:36:45.863Z,7.08
2019-01-31T11:39:35.765Z,7.60
2019-01-31T11:42:33.540Z,7.60
2019-01-31T11:45:50.246Z,7.81
2019-01-31T11:49:03.913Z,7.99
2019-01-31T11:52:30.532Z,7.19
2019-01-31T11:55:24.396Z,8.01
2019-01-31T11:58:32.635Z,8.05
2019-01-31T12:01:05.989Z,7.96
2019-01-31T12:03:38.934Z,6.58
2019-01-31T12:06:14.522Z,6.61
2019-01-31T12:08:46.522Z,7.47
2019-01-31T12:11:18.617Z,7.83
2019-01-31T12:13:50.707Z,8.25
2019-01-31T12:16:22.803Z,8.42
2019-01-31T12:18:55.094Z,8.09
2019-01-31T12:21:27.335Z,8.30
2019-01-31T12:23:59.415Z,8.65
2019-01-31T12:26:31.437Z,8.71
2019-01-31T12:29:03.447Z,8.72
2019-01-31T12:31:35.539Z,8.99
2019-01-31T12:34:07.599Z,9.32
2019-01-31T12:36:39.712Z,9.27
2019-01-31T12:39:12.088Z,9.09
2019-01-31T12:41:44.330Z,8.60
2019-01-31T12:44:16.368Z,8.61
2019-01-31T12:46:48.491Z,8.56
2019-01-31T12:49:20.548Z,8.48
2019-01-31T12:51:52.577Z,8.49
2019-01-31T12:54:24.626Z,8.60
2019-01-31T12:56:56.819Z,8.77
2019-01-31T12:59:28.816Z,8.93
2019-01-31T13:02:00.861Z,8.76
2019-01-31T13:04:32.976Z,7.40
2019-01-31T13:07:05.241Z,7.50
2019-01-31T13:09:37.348Z,7.41
2019-01-31T13:12:09.434Z,7.37
2019-01-31T13:14:41.528Z,7.01
2019-01-31T13:17:13.632Z,6.92
2019-01-31T13:19:45.635Z,7.24
2019-01-31T13:22:17.885Z,7.13
2019-01-31T13:24:49.943Z,6.94
2019-01-31T13:27:22.053Z,6.40
2019-01-31T13:29:54.062Z,5.99
2019-01-31T13:32:26.728Z,6.00
2019-01-31T13:34:59.699Z,5.91
2019-01-31T13:37:31.717Z,4.84
2019-01-31T13:40:04.175Z,4.30
2019-01-31T13:42:36.254Z,4.04
2019-01-31T13:45:10.046Z,3.83
2019-01-31T13:47:42.457Z,3.63
2019-01-31T13:50:15.590Z,3.53
2019-01-31T13:52:47.693Z,3.61
2019-01-31T13:55:25.085Z,3.12
2019-01-31T13:57:57.250Z,3.21
2019-01-31T14:00:29.335Z,3.11
2019-01-31T14:03:01.434Z,3.01
2019-01-31T14:05:33.752Z,3.08
2019-01-31T14:08:06.911Z,3.10
2019-01-31T14:10:39.300Z,3.06
2019-01-31T14:13:11.690Z,2.98
2019-01-31T14:15:44.031Z,3.08
2019-01-31T14:18:16.238Z,3.20
2019-01-31T14:20:48.961Z,3.13
2019-01-31T14:23:21.315Z,2.88
2019-01-31T14:25:53.325Z,2.88
2019-01-31T14:28:26.467Z,2.83
2019-01-31T14:30:58.559Z,2.81
2019-01-31T14:33:31.331Z,2.85
2019-01-31T14:36:03.958Z,3.04
2019-01-31T14:38:36.215Z,3.15
2019-01-31T14:41:08.560Z,3.31
2019-01-31T14:43:40.678Z,3.41
2019-01-31T14:46:13.782Z,3.29
2019-01-31T14:48:45.901Z,3.21
2019-01-31T14:51:18.349Z,3.16
2019-01-31T14:53:50.542Z,3.09
2019-01-31T14:56:22.657Z,3.12
2019-01-31T14:58:54.802Z,3.20
2019-01-31T15:01:26.923Z,3.22
2019-01-31T15:03:59.161Z,3.12
2019-01-31T15:06:31.315Z,3.12
2019-01-31T15:09:03.590Z,3.13
2019-01-31T15:11:37.373Z,3.17
2019-01-31T15:14:09.489Z,3.16
2019-01-31T15:16:41.564Z,3.14
2019-01-31T15:19:13.603Z,3.08
2019-01-31T15:21:45.909Z,2.99
2019-01-31T15:24:17.910Z,2.92
2019-01-31T15:26:50.080Z,2.72
2019-01-31T15:29:22.209Z,2.50
2019-01-31T15:31:54.301Z,2.46
2019-01-31T15:34:26.530Z,2.46
2019-01-31T15:36:58.746Z,2.49
2019-01-31T15:39:32.131Z,2.51
2019-01-31T15:42:04.466Z,2.48
2019-01-31T15:44:43.407Z,2.46
2019-01-31T15:47:11.233Z,2.34
2019-01-31T15:49:43.763Z,2.20
2019-01-31T15:52:15.916Z,2.10
2019-01-31T15:54:48.725Z,1.98
2019-01-31T15:57:20.971Z,1.86
2019-01-31T15:59:53.691Z,1.78
2019-01-31T16:02:26.036Z,1.73
2019-01-31T16:04:58.540Z,1.65
2019-01-31T16:07:32.663Z,1.47
2019-01-31T16:10:04.870Z,1.40
2019-01-31T16:12:38.969Z,1.32
2019-01-31T16:15:22.925Z,1.17
2019-01-31T16:17:58.754Z,1.03
2019-01-31T16:24:40.424Z,0.83
2019-01-31T16:27:16.011Z,0.72
2019-01-31T16:30:31.909Z,0.68
2019-01-31T16:40:12.765Z,0.57
2019-01-31T16:42:53.220Z,0.57
2019-01-31T16:55:46.718Z,0.51
2019-01-31T16:58:19.658Z,0.40
2019-01-31T17:01:11.242Z,0.33
2019-01-31T17:07:08.703Z,0.18
2019-01-31T17:09:55.480Z,0.11
2019-01-31T17:12:31.096Z,0.02
2019-01-31T17:15:17.582Z,0.00
2019-01-31T17:17:45.732Z,-0.09
2019-01-31T17:21:11.201Z,-0.14
2019-01-31T17:28:04.172Z,-0.22
2019-01-31T17:31:11.723Z,-0.28
2019-01-31T17:34:42.443Z,-0.23
2019-01-31T17:37:49.897Z,-0.24
2019-01-31T17:41:11.086Z,-0.17
2019-01-31T17:44:01.528Z,-0.06
2019-01-31T17:47:03.901Z,-0.01
2019-01-31T17:49:48.594Z,-0.03
2019-01-31T17:59:59.631Z,0.23
2019-01-31T18:03:01.612Z,0.33
2019-01-31T18:05:35.387Z,0.34
2019-01-31T18:08:12.149Z,0.33
2019-01-31T18:10:58.413Z,0.09
2019-01-31T18:18:25.209Z,0.37
2019-01-31T18:21:19.596Z,0.31
2019-01-31T18:24:10.453Z,0.21
2019-01-31T18:26:50.842Z,0.16
2019-01-31T18:29:25.141Z,0.19
2019-01-31T18:32:05.907Z,0.17
2019-01-31T18:34:43.857Z,0.12
2019-01-31T18:41:48.306Z,0.04
2019-01-31T18:44:53.231Z,0.03
2019-01-31T19:00:58.562Z,-0.16
2019-01-31T19:04:24.283Z,-0.20
2019-01-31T19:10:04.389Z,-0.26
2019-01-31T19:12:39.565Z,-0.29
2019-01-31T19:15:12.444Z,-0.22
2019-01-31T19:17:47.037Z,-0.24
2019-01-31T19:20:25.916Z,-0.19
2019-01-31T19:23:04.354Z,-0.22
2019-01-31T19:25:39.590Z,-0.19
2019-01-31T19:28:14.660Z,-0.27
2019-01-31T19:30:48.022Z,-0.39
2019-01-31T19:33:23.381Z,-0.43
2019-01-31T19:35:55.947Z,-0.51
2019-01-31T19:38:28.296Z,-0.51
2019-01-31T19:41:00.841Z,-0.53
2019-01-31T19:43:33.302Z,-0.50
2019-01-31T19:46:15.857Z,-0.47
2019-01-31T19:48:39.599Z,-0.45
2019-01-31T19:51:12.111Z,-0.43
2019-01-31T19:53:44.518Z,-0.48
2019-01-31T19:56:18.229Z,-0.57
2019-01-31T19:58:50.367Z,-0.63
2019-01-31T20:01:22.590Z,-0.64
2019-01-31T20:03:54.785Z,-0.70
2019-01-31T20:06:26.946Z,-0.70
2019-01-31T20:09:01.776Z,-0.73
2019-01-31T20:11:44.629Z,-0.71
2019-01-31T20:14:16.813Z,-0.71
2019-01-31T20:16:48.979Z,-0.69
2019-01-31T20:19:21.706Z,-0.65
2019-01-31T20:21:53.868Z,-0.70
2019-01-31T20:24:26.026Z,-0.73
2019-01-31T20:26:58.142Z,-0.81
2019-01-31T20:29:30.172Z,-0.74
2019-01-31T20:32:02.291Z,-0.75
2019-01-31T20:34:34.616Z,-0.82
2019-01-31T20:37:06.788Z,-0.79
2019-01-31T20:39:38.915Z,-0.86
2019-01-31T20:42:11.100Z,-0.88
2019-01-31T20:44:43.300Z,-0.88
2019-01-31T20:47:16.001Z,-0.87
2019-01-31T20:49:48.257Z,-0.87
2019-01-31T20:52:20.320Z,-0.85
2019-01-31T20:54:52.522Z,-0.87
2019-01-31T20:57:24.632Z,-0.98
2019-01-31T20:59:56.796Z,-1.01
2019-01-31T21:02:28.855Z,-1.03
2019-01-31T21:05:01.022Z,-1.06
2019-01-31T21:07:33.521Z,-1.08
2019-01-31T21:10:06.260Z,-1.16
2019-01-31T21:12:38.384Z,-1.19
2019-01-31T21:15:13.147Z,-1.19
2019-01-31T21:17:45.315Z,-1.22
2019-01-31T21:20:18.356Z,-1.14
2019-01-31T21:22:50.526Z,-1.11
2019-01-31T21:25:22.603Z,-1.15
2019-01-31T21:27:54.656Z,-1.18
2019-01-31T21:30:31.985Z,-1.20
2019-01-31T21:33:04.050Z,-1.22
2019-01-31T21:35:36.062Z,-1.20
2019-01-31T21:38:08.175Z,-1.23
2019-01-31T21:40:40.730Z,-1.24
2019-01-31T21:43:12.795Z,-1.26
2019-01-31T21:45:44.910Z,-1.22
2019-01-31T21:48:17.007Z,-1.15
2019-01-31T21:50:49.093Z,-1.10
2019-01-31T21:53:21.262Z,-1.15
2019-01-31T21:55:53.454Z,-1.15
2019-01-31T21:58:25.572Z,-1.17
2019-01-31T22:00:58.670Z,-1.20
2019-01-31T22:03:30.728Z,-1.21
2019-01-31T22:06:02.750Z,-1.14
2019-01-31T22:08:34.810Z,-1.10
2019-01-31T22:11:06.919Z,-1.12
2019-01-31T22:13:38.960Z,-1.13
2019-01-31T22:16:11.116Z,-1.15
2019-01-31T22:18:43.168Z,-1.15
2019-01-31T22:21:16.185Z,-1.14
2019-01-31T22:23:48.383Z,-1.14
2019-01-31T22:26:20.496Z,-1.10
2019-01-31T22:28:52.562Z,-1.10
2019-01-31T22:31:24.636Z,-1.10
2019-01-31T22:33:56.848Z,-1.07
2019-01-31T22:36:28.991Z,-1.10
2019-01-31T22:39:01.001Z,-1.17
2019-01-31T22:41:34.673Z,-1.23
2019-01-31T22:44:06.778Z,-1.33
2019-01-31T22:46:38.792Z,-1.45
2019-01-31T22:49:10.798Z,-1.47
2019-01-31T22:51:42.832Z,-1.53
2019-01-31T22:54:15.910Z,-1.55
2019-01-31T22:56:47.911Z,-1.58
2019-01-31T22:59:19.960Z,-1.56
2019-01-31T23:01:58.879Z,-1.53
2019-01-31T23:04:31.018Z,-1.52
2019-01-31T23:07:03.025Z,-1.45
2019-01-31T23:09:35.165Z,-1.43
2019-01-31T23:12:07.229Z,-1.37
2019-01-31T23:14:39.267Z,-1.36
2019-01-31T23:17:11.332Z,-1.36
2019-01-31T23:19:43.330Z,-1.30
2019-01-31T23:22:15.413Z,-1.25
2019-01-31T23:24:47.449Z,-1.22
2019-01-31T23:27:19.516Z,-1.23
2019-01-31T23:29:51.754Z,-1.13
2019-01-31T23:32:23.886Z,-1.10
2019-01-31T23:34:56.027Z,-1.09
2019-01-31T23:37:28.076Z,-1.11
2019-01-31T23:40:00.308Z,-1.15
2019-01-31T23:42:32.395Z,-1.21
2019-01-31T23:45:05.792Z,-1.34
2019-01-31T23:47:47.622Z,-1.43
2019-01-31T23:50:11.647Z,-1.49
2019-01-31T23:52:43.714Z,-1.44
2019-01-31T23:55:15.752Z,-1.47
2019-01-31T23:57:48.881Z,-1.43
